sensor_id;sensor_type;location;lat;lon;timestamp;pressure;altitude;pressure_sealevel;temperature;humidity
10688;BME280;5392;42.688;23.298;2023-07-28T00:00:46;57267.31;;;-144.48;75.18
10688;BME280;5392;42.688;23.298;2023-07-28T00:03:13;57267.31;;;-144.48;75.73
10688;BME280;5392;42.688;23.298;2023-07-28T00:05:40;57248.53;;;-144.48;76.01
10688;BME280;5392;42.688;23.298;2023-07-28T00:08:06;57279.84;;;-144.48;76.46
10688;BME280;5392;42.688;23.298;2023-07-28T00:10:33;57323.66;;;-144.48;77.30
10688;BME280;5392;42.688;23.298;2023-07-28T00:12:59;57275.66;;;-144.48;77.25
10688;BME280;5392;42.688;23.298;2023-07-28T00:15:27;57315.31;;;-144.48;77.44
10688;BME280;5392;42.688;23.298;2023-07-28T00:17:54;57258.97;;;-144.48;77.85
10688;BME280;5392;42.688;23.298;2023-07-28T00:20:21;57319.50;;;-144.48;78.12
10688;BME280;5392;42.688;23.298;2023-07-28T00:22:47;57256.88;;;-144.48;78.13
10688;BME280;5392;42.688;23.298;2023-07-28T00:25:14;57265.22;;;-144.48;78.29
10688;BME280;5392;42.688;23.298;2023-07-28T00:27:41;57279.84;;;-144.48;78.34
10688;BME280;5392;42.688;23.298;2023-07-28T00:30:08;57281.94;;;-144.48;78.89
10688;BME280;5392;42.688;23.298;2023-07-28T00:32:35;57277.75;;;-144.48;79.21
10688;BME280;5392;42.688;23.298;2023-07-28T00:35:03;57284.00;;;-144.48;79.14
10688;BME280;5392;42.688;23.298;2023-07-28T00:37:29;57292.38;;;-144.48;79.07
10688;BME280;5392;42.688;23.298;2023-07-28T00:39:56;57292.38;;;-144.48;79.43
10688;BME280;5392;42.688;23.298;2023-07-28T00:42:23;57267.31;;;-144.48;79.83
10688;BME280;5392;42.688;23.298;2023-07-28T00:44:50;57279.84;;;-144.48;80.81
10688;BME280;5392;42.688;23.298;2023-07-28T00:47:16;57296.53;;;-144.48;80.98
10688;BME280;5392;42.688;23.298;2023-07-28T00:49:43;57273.56;;;-144.48;81.12
10688;BME280;5392;42.688;23.298;2023-07-28T00:52:10;57306.97;;;-144.48;80.94
10688;BME280;5392;42.688;23.298;2023-07-28T00:54:36;57288.19;;;-144.48;81.47
10688;BME280;5392;42.688;23.298;2023-07-28T00:57:03;57321.59;;;-144.48;81.71
10688;BME280;5392;42.688;23.298;2023-07-28T00:59:31;57290.28;;;-144.48;82.11
10688;BME280;5392;42.688;23.298;2023-07-28T01:01:58;57286.09;;;-144.48;82.30
10688;BME280;5392;42.688;23.298;2023-07-28T01:04:25;57271.50;;;-144.48;82.55
10688;BME280;5392;42.688;23.298;2023-07-28T01:09:47;57304.88;;;-144.48;83.03
10688;BME280;5392;42.688;23.298;2023-07-28T01:12:16;57294.44;;;-144.48;83.25
10688;BME280;5392;42.688;23.298;2023-07-28T01:14:44;57311.16;;;-144.48;83.65
10688;BME280;5392;42.688;23.298;2023-07-28T01:17:11;57265.22;;;-144.48;84.33
10688;BME280;5392;42.688;23.298;2023-07-28T01:19:38;57290.28;;;-144.48;85.00
10688;BME280;5392;42.688;23.298;2023-07-28T01:22:16;57325.75;;;-144.48;85.54
10688;BME280;5392;42.688;23.298;2023-07-28T01:25:06;57309.06;;;-144.48;85.76
10688;BME280;5392;42.688;23.298;2023-07-28T01:27:38;57269.41;;;-144.48;85.52
10688;BME280;5392;42.688;23.298;2023-07-28T01:30:09;57300.72;;;-144.48;85.65
10688;BME280;5392;42.688;23.298;2023-07-28T01:32:36;57284.00;;;-144.48;85.72
10688;BME280;5392;42.688;23.298;2023-07-28T01:35:03;57319.50;;;-144.48;85.84
10688;BME280;5392;42.688;23.298;2023-07-28T01:37:30;57325.75;;;-144.48;86.15
10688;BME280;5392;42.688;23.298;2023-07-28T01:39:57;57248.53;;;-144.48;86.43
10688;BME280;5392;42.688;23.298;2023-07-28T01:42:24;57238.09;;;-144.48;87.10
10688;BME280;5392;42.688;23.298;2023-07-28T01:44:50;57313.22;;;-144.48;86.94
10688;BME280;5392;42.688;23.298;2023-07-28T01:47:17;57298.63;;;-144.48;86.85
10688;BME280;5392;42.688;23.298;2023-07-28T01:49:44;57327.84;;;-144.48;86.84
10688;BME280;5392;42.688;23.298;2023-07-28T01:52:10;57298.63;;;-144.48;86.49
10688;BME280;5392;42.688;23.298;2023-07-28T01:54:37;57269.41;;;-144.48;87.07
10688;BME280;5392;42.688;23.298;2023-07-28T01:57:04;57311.16;;;-144.48;87.19
10688;BME280;5392;42.688;23.298;2023-07-28T01:59:31;57319.50;;;-144.48;87.30
10688;BME280;5392;42.688;23.298;2023-07-28T02:01:57;57286.09;;;-144.48;87.05
10688;BME280;5392;42.688;23.298;2023-07-28T02:04:24;57292.38;;;-144.48;86.82
10688;BME280;5392;42.688;23.298;2023-07-28T02:06:51;57290.28;;;-144.48;86.95
10688;BME280;5392;42.688;23.298;2023-07-28T02:09:18;57269.41;;;-144.48;87.59
10688;BME280;5392;42.688;23.298;2023-07-28T02:11:44;57300.72;;;-144.48;87.50
10688;BME280;5392;42.688;23.298;2023-07-28T02:14:11;57296.53;;;-144.48;87.32
10688;BME280;5392;42.688;23.298;2023-07-28T02:16:38;57292.38;;;-144.48;86.92
10688;BME280;5392;42.688;23.298;2023-07-28T02:19:04;57317.41;;;-144.48;87.67
10688;BME280;5392;42.688;23.298;2023-07-28T02:21:31;57298.63;;;-144.48;88.35
10688;BME280;5392;42.688;23.298;2023-07-28T02:23:58;57290.28;;;-144.48;88.85
10688;BME280;5392;42.688;23.298;2023-07-28T02:26:25;57284.00;;;-144.48;89.58
10688;BME280;5392;42.688;23.298;2023-07-28T02:28:51;57288.19;;;-144.48;89.70
10688;BME280;5392;42.688;23.298;2023-07-28T02:31:18;57311.16;;;-144.48;89.92
10688;BME280;5392;42.688;23.298;2023-07-28T02:33:45;57275.66;;;-144.48;90.11
10688;BME280;5392;42.688;23.298;2023-07-28T02:36:12;57329.94;;;-144.48;89.75
10688;BME280;5392;42.688;23.298;2023-07-28T02:38:38;57265.22;;;-144.48;89.28
10688;BME280;5392;42.688;23.298;2023-07-28T02:41:05;57311.16;;;-144.48;89.25
10688;BME280;5392;42.688;23.298;2023-07-28T02:43:32;57290.28;;;-144.48;90.00
10688;BME280;5392;42.688;23.298;2023-07-28T02:46:00;57240.19;;;-144.48;90.38
10688;BME280;5392;42.688;23.298;2023-07-28T02:48:27;57321.59;;;-144.48;90.46
10688;BME280;5392;42.688;23.298;2023-07-28T02:50:53;57313.22;;;-144.48;90.93
10688;BME280;5392;42.688;23.298;2023-07-28T02:53:20;57294.44;;;-144.48;91.70
10688;BME280;5392;42.688;23.298;2023-07-28T02:55:47;57302.81;;;-144.48;91.56
10688;BME280;5392;42.688;23.298;2023-07-28T02:58:14;57273.56;;;-144.48;91.70
10688;BME280;5392;42.688;23.298;2023-07-28T03:00:41;57325.75;;;-144.48;91.46
10688;BME280;5392;42.688;23.298;2023-07-28T03:03:09;57313.22;;;-144.48;91.31
10688;BME280;5392;42.688;23.298;2023-07-28T03:05:40;57267.31;;;-144.48;90.82
10688;BME280;5392;42.688;23.298;2023-07-28T03:08:06;57267.31;;;-144.48;90.30
10688;BME280;5392;42.688;23.298;2023-07-28T03:10:33;57332.03;;;-144.48;89.10
10688;BME280;5392;42.688;23.298;2023-07-28T03:13:00;57279.84;;;-144.48;89.04
10688;BME280;5392;42.688;23.298;2023-07-28T03:15:26;57309.06;;;-144.48;88.83
10688;BME280;5392;42.688;23.298;2023-07-28T03:17:53;57315.31;;;-144.48;88.82
10688;BME280;5392;42.688;23.298;2023-07-28T03:20:21;57334.09;;;-144.48;88.63
10688;BME280;5392;42.688;23.298;2023-07-28T03:22:48;57288.19;;;-144.48;88.45
10688;BME280;5392;42.688;23.298;2023-07-28T03:25:15;57294.44;;;-144.48;88.61
10688;BME280;5392;42.688;23.298;2023-07-28T03:27:41;57275.66;;;-144.48;87.87
10688;BME280;5392;42.688;23.298;2023-07-28T03:30:08;57332.03;;;-144.48;84.49
10688;BME280;5392;42.688;23.298;2023-07-28T03:32:37;57294.44;;;-144.48;82.59
10688;BME280;5392;42.688;23.298;2023-07-28T03:35:05;57263.16;;;-144.48;78.43
10688;BME280;5392;42.688;23.298;2023-07-28T03:37:32;57277.75;;;-144.48;74.85
10688;BME280;5392;42.688;23.298;2023-07-28T03:39:59;57263.16;;;-144.48;71.45
10688;BME280;5392;42.688;23.298;2023-07-28T03:42:27;57288.19;;;-144.48;67.34
10688;BME280;5392;42.688;23.298;2023-07-28T03:44:54;57269.41;;;-144.48;65.94
10688;BME280;5392;42.688;23.298;2023-07-28T03:47:20;57254.78;;;-144.48;64.02
10688;BME280;5392;42.688;23.298;2023-07-28T03:49:47;57256.88;;;-144.48;61.94
10688;BME280;5392;42.688;23.298;2023-07-28T03:52:14;57271.50;;;-144.48;60.86
10688;BME280;5392;42.688;23.298;2023-07-28T03:54:40;57271.50;;;-144.48;60.40
10688;BME280;5392;42.688;23.298;2023-07-28T03:57:08;57273.56;;;-144.48;60.61
10688;BME280;5392;42.688;23.298;2023-07-28T03:59:35;57263.16;;;-144.48;59.85
10688;BME280;5392;42.688;23.298;2023-07-28T04:02:02;57246.44;;;-144.48;60.11
10688;BME280;5392;42.688;23.298;2023-07-28T04:04:29;57281.94;;;-144.48;61.33
10688;BME280;5392;42.688;23.298;2023-07-28T04:06:56;57246.44;;;-144.48;61.92
10688;BME280;5392;42.688;23.298;2023-07-28T04:09:23;57277.75;;;-144.48;61.93
10688;BME280;5392;42.688;23.298;2023-07-28T04:11:50;57248.53;;;-144.48;62.42
10688;BME280;5392;42.688;23.298;2023-07-28T04:14:17;57244.34;;;-144.48;61.81
10688;BME280;5392;42.688;23.298;2023-07-28T04:16:44;57267.31;;;-144.48;60.14
10688;BME280;5392;42.688;23.298;2023-07-28T04:19:10;57273.56;;;-144.48;58.48
10688;BME280;5392;42.688;23.298;2023-07-28T04:21:37;57217.22;;;-144.48;56.35
10688;BME280;5392;42.688;23.298;2023-07-28T04:24:08;57208.88;;;-144.48;55.89
10688;BME280;5392;42.688;23.298;2023-07-28T04:26:35;57261.06;;;-144.48;54.33
10688;BME280;5392;42.688;23.298;2023-07-28T04:29:03;57242.28;;;-144.48;53.35
10688;BME280;5392;42.688;23.298;2023-07-28T04:31:31;57240.19;;;-144.48;53.46
10688;BME280;5392;42.688;23.298;2023-07-28T04:33:58;57254.78;;;-144.48;52.43
10688;BME280;5392;42.688;23.298;2023-07-28T04:36:24;57240.19;;;-144.48;51.14
10688;BME280;5392;42.688;23.298;2023-07-28T04:38:51;57236.00;;;-144.48;50.93
10688;BME280;5392;42.688;23.298;2023-07-28T04:41:18;57188.00;;;-144.48;50.46
10688;BME280;5392;42.688;23.298;2023-07-28T04:43:44;57219.31;;;-144.48;50.38
10688;BME280;5392;42.688;23.298;2023-07-28T04:46:11;57242.28;;;-144.48;51.01
10688;BME280;5392;42.688;23.298;2023-07-28T04:48:38;57219.31;;;-144.48;50.72
10688;BME280;5392;42.688;23.298;2023-07-28T04:51:04;57202.63;;;-144.48;50.83
10688;BME280;5392;42.688;23.298;2023-07-28T04:53:31;57256.88;;;-144.48;50.01
10688;BME280;5392;42.688;23.298;2023-07-28T04:55:58;57206.78;;;-144.48;48.58
10688;BME280;5392;42.688;23.298;2023-07-28T04:58:25;57173.41;;;-144.48;48.95
10688;BME280;5392;42.688;23.298;2023-07-28T05:00:52;57210.97;;;-144.48;47.60
10688;BME280;5392;42.688;23.298;2023-07-28T05:03:18;57169.22;;;-144.48;47.18
10688;BME280;5392;42.688;23.298;2023-07-28T05:05:45;57133.75;;;-144.48;46.62
10688;BME280;5392;42.688;23.298;2023-07-28T05:08:12;57225.56;;;-144.48;47.14
10688;BME280;5392;42.688;23.298;2023-07-28T05:10:41;57173.41;;;-144.48;45.55
10688;BME280;5392;42.688;23.298;2023-07-28T05:13:09;57208.88;;;-144.48;45.35
10688;BME280;5392;42.688;23.298;2023-07-28T05:15:36;57208.88;;;-144.48;45.40
10688;BME280;5392;42.688;23.298;2023-07-28T05:18:03;57192.19;;;-144.48;45.20
10688;BME280;5392;42.688;23.298;2023-07-28T05:20:30;57213.06;;;-144.48;45.39
10688;BME280;5392;42.688;23.298;2023-07-28T05:22:57;57208.88;;;-144.48;45.21
10688;BME280;5392;42.688;23.298;2023-07-28T05:25:23;57221.41;;;-144.48;45.56
10688;BME280;5392;42.688;23.298;2023-07-28T05:27:50;57196.34;;;-144.48;45.89
10688;BME280;5392;42.688;23.298;2023-07-28T05:30:18;57192.19;;;-144.48;46.01
10688;BME280;5392;42.688;23.298;2023-07-28T05:32:44;57223.50;;;-144.48;45.74
10688;BME280;5392;42.688;23.298;2023-07-28T05:35:13;57206.78;;;-144.48;45.38
10688;BME280;5392;42.688;23.298;2023-07-28T05:37:39;57148.34;;;-144.48;44.99
10688;BME280;5392;42.688;23.298;2023-07-28T05:40:06;57204.69;;;-144.48;45.62
10688;BME280;5392;42.688;23.298;2023-07-28T05:42:33;57221.41;;;-144.48;45.64
10688;BME280;5392;42.688;23.298;2023-07-28T05:45:03;57198.44;;;-144.48;45.94
10688;BME280;5392;42.688;23.298;2023-07-28T05:47:30;57194.25;;;-144.48;46.94
10688;BME280;5392;42.688;23.298;2023-07-28T05:49:57;57221.41;;;-144.48;46.02
10688;BME280;5392;42.688;23.298;2023-07-28T05:52:23;57179.66;;;-144.48;46.60
10688;BME280;5392;42.688;23.298;2023-07-28T05:54:50;57244.34;;;-144.48;46.42
10688;BME280;5392;42.688;23.298;2023-07-28T05:57:17;57233.91;;;-144.48;47.64
10688;BME280;5392;42.688;23.298;2023-07-28T05:59:43;57227.66;;;-144.48;47.61
10688;BME280;5392;42.688;23.298;2023-07-28T06:02:10;57210.97;;;-144.48;49.76
10688;BME280;5392;42.688;23.298;2023-07-28T06:04:37;57248.53;;;-144.48;49.64
10688;BME280;5392;42.688;23.298;2023-07-28T06:07:04;57277.75;;;-144.48;49.64
10688;BME280;5392;42.688;23.298;2023-07-28T06:09:31;57267.31;;;-144.48;50.41
10688;BME280;5392;42.688;23.298;2023-07-28T06:11:58;57254.78;;;-144.48;49.93
10688;BME280;5392;42.688;23.298;2023-07-28T06:14:25;57244.34;;;-144.48;49.25
10688;BME280;5392;42.688;23.298;2023-07-28T06:16:51;57244.34;;;-144.48;49.16
10688;BME280;5392;42.688;23.298;2023-07-28T06:19:18;57242.28;;;-144.48;49.97
10688;BME280;5392;42.688;23.298;2023-07-28T06:21:50;57215.13;;;-144.48;48.83
10688;BME280;5392;42.688;23.298;2023-07-28T06:24:18;57250.63;;;-144.48;47.63
10688;BME280;5392;42.688;23.298;2023-07-28T06:26:45;57250.63;;;-144.48;51.39
10688;BME280;5392;42.688;23.298;2023-07-28T06:29:11;57248.53;;;-144.48;50.51
10688;BME280;5392;42.688;23.298;2023-07-28T06:31:38;57198.44;;;-144.48;50.06
10688;BME280;5392;42.688;23.298;2023-07-28T06:34:05;57254.78;;;-144.48;48.63
10688;BME280;5392;42.688;23.298;2023-07-28T06:36:33;57250.63;;;-144.48;48.40
10688;BME280;5392;42.688;23.298;2023-07-28T06:38:59;57254.78;;;-144.48;50.24
10688;BME280;5392;42.688;23.298;2023-07-28T06:41:26;57198.44;;;-144.48;50.49
10688;BME280;5392;42.688;23.298;2023-07-28T06:43:53;57242.28;;;-144.48;50.93
10688;BME280;5392;42.688;23.298;2023-07-28T06:46:20;57206.78;;;-144.48;48.61
10688;BME280;5392;42.688;23.298;2023-07-28T06:48:46;57225.56;;;-144.48;49.03
10688;BME280;5392;42.688;23.298;2023-07-28T06:51:13;57229.75;;;-144.48;48.51
10688;BME280;5392;42.688;23.298;2023-07-28T06:53:40;57238.09;;;-144.48;49.34
10688;BME280;5392;42.688;23.298;2023-07-28T06:56:06;57229.75;;;-144.48;50.00
10688;BME280;5392;42.688;23.298;2023-07-28T06:58:33;57242.28;;;-144.48;48.61
10688;BME280;5392;42.688;23.298;2023-07-28T07:01:00;57250.63;;;-144.48;49.03
10688;BME280;5392;42.688;23.298;2023-07-28T07:03:26;57215.13;;;-144.48;47.75
10688;BME280;5392;42.688;23.298;2023-07-28T07:05:53;57221.41;;;-144.48;45.84
10688;BME280;5392;42.688;23.298;2023-07-28T07:08:20;57213.06;;;-144.48;46.31
10688;BME280;5392;42.688;23.298;2023-07-28T07:10:50;57223.50;;;-144.48;46.68
10688;BME280;5392;42.688;23.298;2023-07-28T07:13:17;57221.41;;;-144.48;46.24
10688;BME280;5392;42.688;23.298;2023-07-28T07:15:45;57208.88;;;-144.48;49.17
10688;BME280;5392;42.688;23.298;2023-07-28T07:18:12;57221.41;;;-144.48;46.96
10688;BME280;5392;42.688;23.298;2023-07-28T07:20:39;57221.41;;;-144.48;48.43
10688;BME280;5392;42.688;23.298;2023-07-28T07:23:06;57240.19;;;-144.48;48.97
10688;BME280;5392;42.688;23.298;2023-07-28T07:25:33;57215.13;;;-144.48;47.51
10688;BME280;5392;42.688;23.298;2023-07-28T07:28:00;57194.25;;;-144.48;46.21
10688;BME280;5392;42.688;23.298;2023-07-28T07:30:27;57206.78;;;-144.48;46.07
10688;BME280;5392;42.688;23.298;2023-07-28T07:32:53;57231.84;;;-144.48;45.37
10688;BME280;5392;42.688;23.298;2023-07-28T07:35:20;57229.75;;;-144.48;47.62
10688;BME280;5392;42.688;23.298;2023-07-28T07:37:47;57223.50;;;-144.48;47.31
10688;BME280;5392;42.688;23.298;2023-07-28T07:40:14;57196.34;;;-144.48;46.52
10688;BME280;5392;42.688;23.298;2023-07-28T07:42:48;57215.13;;;-144.48;46.88
10688;BME280;5392;42.688;23.298;2023-07-28T07:45:15;57263.16;;;-144.48;48.68
10688;BME280;5392;42.688;23.298;2023-07-28T07:47:42;57269.41;;;-144.48;48.03
10688;BME280;5392;42.688;23.298;2023-07-28T07:50:10;57229.75;;;-144.48;49.63
10688;BME280;5392;42.688;23.298;2023-07-28T07:52:38;57244.34;;;-144.48;48.36
10688;BME280;5392;42.688;23.298;2023-07-28T07:55:09;57227.66;;;-144.48;46.76
10688;BME280;5392;42.688;23.298;2023-07-28T07:57:39;57206.78;;;-144.48;45.82
10688;BME280;5392;42.688;23.298;2023-07-28T08:00:06;57265.22;;;-144.48;47.38
10688;BME280;5392;42.688;23.298;2023-07-28T08:02:33;57181.75;;;-144.48;46.07
10688;BME280;5392;42.688;23.298;2023-07-28T08:05:00;57225.56;;;-144.48;46.23
10688;BME280;5392;42.688;23.298;2023-07-28T08:07:27;57181.75;;;-144.48;46.09
10688;BME280;5392;42.688;23.298;2023-07-28T08:09:54;57206.78;;;-144.48;46.48
10688;BME280;5392;42.688;23.298;2023-07-28T08:12:21;57246.44;;;-144.48;46.70
10688;BME280;5392;42.688;23.298;2023-07-28T08:14:48;57231.84;;;-144.48;45.71
10688;BME280;5392;42.688;23.298;2023-07-28T08:17:14;57221.41;;;-144.48;45.36
10688;BME280;5392;42.688;23.298;2023-07-28T08:19:41;57183.84;;;-144.48;45.11
10688;BME280;5392;42.688;23.298;2023-07-28T08:22:08;57194.25;;;-144.48;45.82
10688;BME280;5392;42.688;23.298;2023-07-28T08:24:35;57242.28;;;-144.48;48.13
10688;BME280;5392;42.688;23.298;2023-07-28T08:27:02;57221.41;;;-144.48;46.20
10688;BME280;5392;42.688;23.298;2023-07-28T08:29:29;57256.88;;;-144.48;46.18
10688;BME280;5392;42.688;23.298;2023-07-28T08:31:56;57240.19;;;-144.48;45.87
10688;BME280;5392;42.688;23.298;2023-07-28T08:34:23;57271.50;;;-144.48;46.61
10688;BME280;5392;42.688;23.298;2023-07-28T08:36:50;57263.16;;;-144.48;46.41
10688;BME280;5392;42.688;23.298;2023-07-28T08:39:17;57208.88;;;-144.48;45.18
10688;BME280;5392;42.688;23.298;2023-07-28T08:41:44;57177.56;;;-144.48;45.04
10688;BME280;5392;42.688;23.298;2023-07-28T08:44:11;57219.31;;;-144.48;47.13
10688;BME280;5392;42.688;23.298;2023-07-28T08:46:38;57217.22;;;-144.48;46.88
10688;BME280;5392;42.688;23.298;2023-07-28T08:49:05;57279.84;;;-144.48;46.72
10688;BME280;5392;42.688;23.298;2023-07-28T08:51:32;57238.09;;;-144.48;46.88
10688;BME280;5392;42.688;23.298;2023-07-28T08:53:59;57238.09;;;-144.48;46.15
10688;BME280;5392;42.688;23.298;2023-07-28T08:56:26;57194.25;;;-144.48;46.29
10688;BME280;5392;42.688;23.298;2023-07-28T08:58:58;57229.75;;;-144.48;45.20
10688;BME280;5392;42.688;23.298;2023-07-28T09:01:25;57223.50;;;-144.48;46.21
10688;BME280;5392;42.688;23.298;2023-07-28T09:03:52;57221.41;;;-144.48;45.53
10688;BME280;5392;42.688;23.298;2023-07-28T09:06:28;57204.69;;;-144.48;46.60
10688;BME280;5392;42.688;23.298;2023-07-28T09:08:56;57227.66;;;-144.48;46.01
10688;BME280;5392;42.688;23.298;2023-07-28T09:11:24;57236.00;;;-144.48;46.44
10688;BME280;5392;42.688;23.298;2023-07-28T09:13:54;57219.31;;;-144.48;46.29
10688;BME280;5392;42.688;23.298;2023-07-28T09:16:22;57248.53;;;-144.48;45.93
10688;BME280;5392;42.688;23.298;2023-07-28T09:19:03;57210.97;;;-144.48;45.99
10688;BME280;5392;42.688;23.298;2023-07-28T09:21:30;57236.00;;;-144.48;46.43
10688;BME280;5392;42.688;23.298;2023-07-28T09:23:59;57217.22;;;-144.48;47.49
10688;BME280;5392;42.688;23.298;2023-07-28T09:26:44;57204.69;;;-144.48;47.91
10688;BME280;5392;42.688;23.298;2023-07-28T09:29:19;57258.97;;;-144.48;47.56
10688;BME280;5392;42.688;23.298;2023-07-28T09:31:48;57223.50;;;-144.48;48.04
10688;BME280;5392;42.688;23.298;2023-07-28T09:34:35;57248.53;;;-144.48;48.94
10688;BME280;5392;42.688;23.298;2023-07-28T09:37:05;57254.78;;;-144.48;49.14
10688;BME280;5392;42.688;23.298;2023-07-28T09:39:32;57208.88;;;-144.48;49.23
10688;BME280;5392;42.688;23.298;2023-07-28T09:42:01;57246.44;;;-144.48;48.62
10688;BME280;5392;42.688;23.298;2023-07-28T09:44:28;57248.53;;;-144.48;48.54
10688;BME280;5392;42.688;23.298;2023-07-28T09:46:56;57238.09;;;-144.48;48.31
10688;BME280;5392;42.688;23.298;2023-07-28T09:49:28;57196.34;;;-144.48;47.86
10688;BME280;5392;42.688;23.298;2023-07-28T09:52:00;57204.69;;;-144.48;47.62
10688;BME280;5392;42.688;23.298;2023-07-28T09:54:30;57238.09;;;-144.48;47.71
10688;BME280;5392;42.688;23.298;2023-07-28T09:56:59;57227.66;;;-144.48;47.22
10688;BME280;5392;42.688;23.298;2023-07-28T09:59:32;57206.78;;;-144.48;47.12
10688;BME280;5392;42.688;23.298;2023-07-28T10:02:02;57233.91;;;-144.48;46.78
10688;BME280;5392;42.688;23.298;2023-07-28T10:04:32;57213.06;;;-144.48;46.78
10688;BME280;5392;42.688;23.298;2023-07-28T10:07:00;57233.91;;;-144.48;46.54
10688;BME280;5392;42.688;23.298;2023-07-28T10:09:29;57194.25;;;-144.48;47.24
10688;BME280;5392;42.688;23.298;2023-07-28T10:12:04;57208.88;;;-144.48;46.79
10688;BME280;5392;42.688;23.298;2023-07-28T10:14:37;57196.34;;;-144.48;46.43
10688;BME280;5392;42.688;23.298;2023-07-28T10:17:05;57227.66;;;-144.48;46.33
10688;BME280;5392;42.688;23.298;2023-07-28T10:19:36;57242.28;;;-144.48;46.99
10688;BME280;5392;42.688;23.298;2023-07-28T10:22:11;57223.50;;;-144.48;46.97
10688;BME280;5392;42.688;23.298;2023-07-28T10:30:04;57248.53;;;-144.48;47.23
10688;BME280;5392;42.688;23.298;2023-07-28T10:32:41;57217.22;;;-144.48;47.53
10688;BME280;5392;42.688;23.298;2023-07-28T10:35:22;57221.41;;;-144.48;47.78
10688;BME280;5392;42.688;23.298;2023-07-28T10:37:49;57246.44;;;-144.48;48.41
10688;BME280;5392;42.688;23.298;2023-07-28T10:40:31;57275.66;;;-144.48;48.18
10688;BME280;5392;42.688;23.298;2023-07-28T10:42:59;57244.34;;;-144.48;48.68
10688;BME280;5392;42.688;23.298;2023-07-28T10:45:29;57254.78;;;-144.48;48.75
10688;BME280;5392;42.688;23.298;2023-07-28T10:47:57;57238.09;;;-144.48;48.29
10688;BME280;5392;42.688;23.298;2023-07-28T10:50:27;57225.56;;;-144.48;48.17
10688;BME280;5392;42.688;23.298;2023-07-28T10:52:56;57217.22;;;-144.48;47.85
10688;BME280;5392;42.688;23.298;2023-07-28T10:55:25;57204.69;;;-144.48;47.34
10688;BME280;5392;42.688;23.298;2023-07-28T10:57:53;57213.06;;;-144.48;47.66
10688;BME280;5392;42.688;23.298;2023-07-28T11:00:22;57233.91;;;-144.48;48.00
10688;BME280;5392;42.688;23.298;2023-07-28T11:02:52;57236.00;;;-144.48;47.46
10688;BME280;5392;42.688;23.298;2023-07-28T11:05:30;57217.22;;;-144.48;48.30
10688;BME280;5392;42.688;23.298;2023-07-28T11:07:58;57219.31;;;-144.48;47.84
10688;BME280;5392;42.688;23.298;2023-07-28T11:10:30;57217.22;;;-144.48;48.14
10688;BME280;5392;42.688;23.298;2023-07-28T11:13:01;57227.66;;;-144.48;47.53
10688;BME280;5392;42.688;23.298;2023-07-28T11:15:46;57215.13;;;-144.48;46.78
10688;BME280;5392;42.688;23.298;2023-07-28T11:18:15;57200.53;;;-144.48;46.83
10688;BME280;5392;42.688;23.298;2023-07-28T11:20:42;57229.75;;;-144.48;46.48
10688;BME280;5392;42.688;23.298;2023-07-28T11:23:09;57233.91;;;-144.48;46.99
10688;BME280;5392;42.688;23.298;2023-07-28T11:25:37;57229.75;;;-144.48;47.38
10688;BME280;5392;42.688;23.298;2023-07-28T11:28:04;57246.44;;;-144.48;47.43
10688;BME280;5392;42.688;23.298;2023-07-28T11:30:36;57265.22;;;-144.48;46.92
10688;BME280;5392;42.688;23.298;2023-07-28T11:33:08;57231.84;;;-144.48;46.40
10688;BME280;5392;42.688;23.298;2023-07-28T11:35:35;57252.72;;;-144.48;46.42
10688;BME280;5392;42.688;23.298;2023-07-28T11:38:03;57194.25;;;-144.48;46.10
10688;BME280;5392;42.688;23.298;2023-07-28T11:40:30;57227.66;;;-144.48;45.57
10688;BME280;5392;42.688;23.298;2023-07-28T11:42:57;57165.03;;;-144.48;45.56
10688;BME280;5392;42.688;23.298;2023-07-28T11:45:23;57204.69;;;-144.48;45.54
10688;BME280;5392;42.688;23.298;2023-07-28T11:48:06;57233.91;;;-144.48;46.50
10688;BME280;5392;42.688;23.298;2023-07-28T11:50:38;57229.75;;;-144.48;46.27
10688;BME280;5392;42.688;23.298;2023-07-28T11:53:06;57244.34;;;-144.48;46.60
10688;BME280;5392;42.688;23.298;2023-07-28T11:55:36;57225.56;;;-144.48;46.66
10688;BME280;5392;42.688;23.298;2023-07-28T11:58:06;57263.16;;;-144.48;46.23
10688;BME280;5392;42.688;23.298;2023-07-28T12:00:37;57229.75;;;-144.48;46.06
10688;BME280;5392;42.688;23.298;2023-07-28T12:03:06;57256.88;;;-144.48;45.76
10688;BME280;5392;42.688;23.298;2023-07-28T12:05:38;57183.84;;;-144.48;45.61
10688;BME280;5392;42.688;23.298;2023-07-28T12:08:35;57177.56;;;-144.48;45.33
10688;BME280;5392;42.688;23.298;2023-07-28T12:11:03;57217.22;;;-144.48;45.36
10688;BME280;5392;42.688;23.298;2023-07-28T12:13:33;57240.19;;;-144.48;45.14
10688;BME280;5392;42.688;23.298;2023-07-28T12:16:47;57192.19;;;-144.48;45.08
10688;BME280;5392;42.688;23.298;2023-07-28T12:19:17;57200.53;;;-144.48;44.95
10688;BME280;5392;42.688;23.298;2023-07-28T12:21:43;57196.34;;;-144.48;44.81
10688;BME280;5392;42.688;23.298;2023-07-28T12:24:10;57200.53;;;-144.48;45.28
10688;BME280;5392;42.688;23.298;2023-07-28T12:26:37;57175.47;;;-144.48;45.10
10688;BME280;5392;42.688;23.298;2023-07-28T12:29:06;57206.78;;;-144.48;45.33
10688;BME280;5392;42.688;23.298;2023-07-28T12:31:37;57206.78;;;-144.48;45.76
10688;BME280;5392;42.688;23.298;2023-07-28T12:34:07;57160.88;;;-144.48;45.51
10688;BME280;5392;42.688;23.298;2023-07-28T12:36:34;57194.25;;;-144.48;45.14
10688;BME280;5392;42.688;23.298;2023-07-28T12:39:03;57213.06;;;-144.48;44.96
10688;BME280;5392;42.688;23.298;2023-07-28T12:41:50;57196.34;;;-144.48;44.92
10688;BME280;5392;42.688;23.298;2023-07-28T12:44:38;57185.91;;;-144.48;45.11
10688;BME280;5392;42.688;23.298;2023-07-28T12:47:08;57200.53;;;-144.48;45.26
10688;BME280;5392;42.688;23.298;2023-07-28T12:49:35;57196.34;;;-144.48;45.73
10688;BME280;5392;42.688;23.298;2023-07-28T12:52:04;57204.69;;;-144.48;45.52
10688;BME280;5392;42.688;23.298;2023-07-28T12:54:33;57179.66;;;-144.48;45.02